createdAt,value
2022-10-05T07:24:05.037Z,14.39
2022-10-05T07:25:19.005Z,15.13
2022-10-05T07:26:38.889Z,14.79
2022-10-05T07:28:02.241Z,15.11
2022-10-05T07:29:28.693Z,15.26
2022-10-05T07:30:36.080Z,15.22
2022-10-05T07:32:03.404Z,15.31
2022-10-05T07:33:18.826Z,15.59
2022-10-05T07:34:34.694Z,15.71
2022-10-05T07:36:03.989Z,15.79
2022-10-05T07:37:30.385Z,16.25
2022-10-05T07:38:41.041Z,16.92
2022-10-05T07:40:06.622Z,17.82
2022-10-05T07:41:22.877Z,17.86
2022-10-05T07:55:16.151Z,18.70
2022-10-05T07:56:25.619Z,18.57
2022-10-05T07:57:33.133Z,19.00
2022-10-05T07:58:44.842Z,18.15
2022-10-05T08:00:01.097Z,18.72
2022-10-05T08:01:08.669Z,18.98
2022-10-05T08:02:32.691Z,17.95
2022-10-05T08:03:43.349Z,18.40
2022-10-05T08:04:58.609Z,18.30
2022-10-05T08:06:03.411Z,19.56
2022-10-05T08:07:09.131Z,20.91
2022-10-05T08:08:18.200Z,19.66
2022-10-05T08:09:50.090Z,19.53
2022-10-05T08:11:18.843Z,19.16
2022-10-05T08:12:28.474Z,19.61
2022-10-05T08:13:39.211Z,20.59
2022-10-05T08:14:57.695Z,20.86
2022-10-05T08:16:03.703Z,20.55
2022-10-05T08:17:17.525Z,20.35
2022-10-05T08:18:21.623Z,21.62
2022-10-05T08:19:33.863Z,22.58
2022-10-05T08:20:48.192Z,22.27
2022-10-05T08:21:58.137Z,21.96
2022-10-05T08:23:10.462Z,22.78
2022-10-05T08:24:34.658Z,23.80
2022-10-05T08:25:42.044Z,23.19
2022-10-05T08:26:59.698Z,22.38
2022-10-05T08:28:20.800Z,22.30
2022-10-05T08:29:35.218Z,22.50
2022-10-05T08:31:02.033Z,23.52
2022-10-05T08:32:11.965Z,24.27
2022-10-05T08:33:22.106Z,24.38
2022-10-05T08:35:01.485Z,23.56
2022-10-05T08:42:50.800Z,24.50
2022-10-05T08:44:00.979Z,24.59
2022-10-05T08:45:36.248Z,25.47
2022-10-05T08:47:15.063Z,25.40
2022-10-05T08:48:53.389Z,23.49
2022-10-05T08:50:17.254Z,22.69
2022-10-05T08:51:36.559Z,23.20
2022-10-05T08:53:12.290Z,24.22
2022-10-05T08:54:13.633Z,25.85
2022-10-05T08:55:32.606Z,25.12
2022-10-05T08:56:52.554Z,26.09
2022-10-05T08:58:12.073Z,26.45
2022-10-05T08:59:13.360Z,26.89
2022-10-05T09:00:37.278Z,24.69
2022-10-05T09:01:45.225Z,25.45
2022-10-05T09:03:17.401Z,25.07
2022-10-05T09:04:34.741Z,24.24
2022-10-05T09:05:56.951Z,25.19
2022-10-05T09:12:07.605Z,26.63
2022-10-05T09:13:26.240Z,28.19
2022-10-05T09:14:40.036Z,28.19
2022-10-05T09:15:48.055Z,28.52
2022-10-05T09:16:52.886Z,27.83
2022-10-05T09:18:18.690Z,26.02
2022-10-05T09:19:40.459Z,28.31
2022-10-05T09:21:23.508Z,28.61
2022-10-05T09:22:41.274Z,28.42
2022-10-05T09:23:48.545Z,27.39
2022-10-05T09:25:17.110Z,27.84
2022-10-05T09:26:37.283Z,27.50
2022-10-05T09:27:46.305Z,27.31
2022-10-05T09:29:25.116Z,26.59
2022-10-05T09:48:56.089Z,27.54
2022-10-05T09:50:22.757Z,28.34
2022-10-05T09:51:45.702Z,27.39
2022-10-05T09:53:09.367Z,28.14
2022-10-05T09:54:48.378Z,26.29
2022-10-05T09:56:05.197Z,27.28
2022-10-05T09:57:39.289Z,26.70
2022-10-05T09:59:18.500Z,27.68
2022-10-05T10:00:54.196Z,26.74
2022-10-05T10:02:30.757Z,26.84
2022-10-05T10:04:10.170Z,28.42
2022-10-05T10:05:31.290Z,28.87
2022-10-05T10:25:19.094Z,29.97
2022-10-05T10:26:54.239Z,30.42
2022-10-05T10:28:07.564Z,30.31
2022-10-05T10:29:36.840Z,30.54
2022-10-05T10:30:56.970Z,30.37
2022-10-05T10:32:30.469Z,29.42
2022-10-05T10:34:00.178Z,29.29
2022-10-05T10:35:21.955Z,28.65
2022-10-05T10:36:41.887Z,27.75
2022-10-05T10:38:20.464Z,28.21
2022-10-05T10:39:59.571Z,28.33
2022-10-05T10:41:49.326Z,28.63
2022-10-05T10:43:05.844Z,29.73
2022-10-05T10:44:41.904Z,29.29
2022-10-05T10:46:14.550Z,28.62
2022-10-05T10:47:15.870Z,28.36
2022-10-05T10:54:03.575Z,29.85
2022-10-05T10:55:08.073Z,29.32
2022-10-05T10:56:41.877Z,28.92
2022-10-05T10:58:24.129Z,29.24
2022-10-05T10:59:46.791Z,27.64
2022-10-05T11:01:33.559Z,26.18
2022-10-05T11:02:38.423Z,27.59
2022-10-05T11:04:31.059Z,26.66
2022-10-05T11:05:32.447Z,26.58
2022-10-05T11:06:39.094Z,27.17
2022-10-05T11:07:55.028Z,27.75
2022-10-05T11:09:14.776Z,27.38
2022-10-05T11:10:37.808Z,25.54
2022-10-05T11:12:02.847Z,27.19
2022-10-05T11:13:25.559Z,27.63
2022-10-05T11:15:08.543Z,26.67
2022-10-05T11:16:37.933Z,27.25
2022-10-05T11:17:58.950Z,26.24
2022-10-05T11:42:03.891Z,27.25
2022-10-05T11:43:42.860Z,27.57
2022-10-05T11:45:19.193Z,27.05
2022-10-05T11:46:36.038Z,27.35
2022-10-05T11:47:56.978Z,28.40
2022-10-05T11:54:07.089Z,27.82
2022-10-05T11:55:23.715Z,27.82
2022-10-05T11:56:41.190Z,27.15
2022-10-05T11:57:46.600Z,27.23
2022-10-05T11:59:21.002Z,27.79
2022-10-05T12:12:31.250Z,28.83
2022-10-05T12:13:46.057Z,28.14
2022-10-05T12:14:56.345Z,27.78
2022-10-05T12:16:00.239Z,28.09
2022-10-05T12:17:04.532Z,28.46
2022-10-05T12:18:21.005Z,27.81
2022-10-05T12:19:31.557Z,28.36
2022-10-05T12:20:40.697Z,28.64
2022-10-05T12:21:59.950Z,28.98
2022-10-05T12:23:20.856Z,28.46
2022-10-05T12:25:17.106Z,28.32
2022-10-05T12:26:48.738Z,28.51
2022-10-05T12:27:54.069Z,28.77
2022-10-05T12:29:13.149Z,28.50
2022-10-05T12:30:19.807Z,28.91
2022-10-05T12:31:29.947Z,29.50
2022-10-05T12:32:38.477Z,29.75
2022-10-05T12:33:54.264Z,29.42
2022-10-05T12:35:30.073Z,29.10
2022-10-05T12:42:05.178Z,29.44
2022-10-05T12:43:23.169Z,29.18
2022-10-05T12:44:43.556Z,29.85
2022-10-05T12:45:56.647Z,29.47
2022-10-05T12:47:18.517Z,29.86
2022-10-05T12:48:31.905Z,29.65
2022-10-05T12:49:41.135Z,30.03
2022-10-05T12:50:49.682Z,30.73
2022-10-05T12:52:03.098Z,30.68
2022-10-05T12:53:40.847Z,30.08
2022-10-05T12:54:48.429Z,29.65
2022-10-05T12:55:54.757Z,30.08
2022-10-05T12:57:04.834Z,30.31
2022-10-05T12:58:28.723Z,31.00
2022-10-05T12:59:47.541Z,31.54
2022-10-05T13:01:08.311Z,30.56
2022-10-05T13:02:25.572Z,31.04
2022-10-05T13:04:03.217Z,30.35
2022-10-05T13:05:10.646Z,29.65
2022-10-05T13:06:21.628Z,30.24
2022-10-05T13:07:38.745Z,29.76
2022-10-05T13:09:17.254Z,30.33
2022-10-05T13:10:40.593Z,30.88
2022-10-05T13:11:48.094Z,30.35
2022-10-05T13:18:04.233Z,29.92
2022-10-05T13:19:25.399Z,29.46
2022-10-05T13:20:35.248Z,30.31
2022-10-05T13:21:55.696Z,30.29
2022-10-05T13:23:09.618Z,31.06
2022-10-05T13:24:26.293Z,31.38
2022-10-05T13:25:34.695Z,30.16
2022-10-05T13:26:40.832Z,30.04
2022-10-05T13:28:08.383Z,30.52
2022-10-05T13:29:33.187Z,30.23
2022-10-05T13:30:36.621Z,30.63
2022-10-05T13:31:54.154Z,30.66
2022-10-05T13:33:20.617Z,30.60
2022-10-05T13:34:43.258Z,30.90
2022-10-05T13:36:12.583Z,30.87
2022-10-05T13:37:23.968Z,30.85
2022-10-05T13:38:34.348Z,30.81
2022-10-05T13:40:10.860Z,30.64
2022-10-05T13:41:25.785Z,30.48
2022-10-05T13:42:42.841Z,30.35
2022-10-05T13:43:58.162Z,30.44
2022-10-05T13:45:13.380Z,30.49
2022-10-05T13:46:40.372Z,30.64
2022-10-05T13:48:01.952Z,30.62
2022-10-05T14:00:27.365Z,29.76
2022-10-05T14:01:34.545Z,29.99
2022-10-05T14:02:41.660Z,29.79
2022-10-05T14:04:13.635Z,28.75
2022-10-05T14:05:22.287Z,28.63
2022-10-05T14:06:33.130Z,28.55
2022-10-05T14:07:38.996Z,28.92
2022-10-05T14:08:53.069Z,29.14
2022-10-05T14:09:54.589Z,29.12
2022-10-05T14:10:56.924Z,28.97
2022-10-05T14:36:40.199Z,28.15
2022-10-05T14:37:50.423Z,28.55
2022-10-05T14:38:57.694Z,28.51
2022-10-05T14:40:23.356Z,28.62
2022-10-05T14:41:27.231Z,28.58
2022-10-05T14:42:44.938Z,28.64
2022-10-05T14:44:18.449Z,27.80
2022-10-05T14:45:23.796Z,27.86
2022-10-05T14:46:29.240Z,28.15
2022-10-05T14:47:32.149Z,28.13
2022-10-05T14:48:44.638Z,27.04
2022-10-05T14:50:10.636Z,27.33
2022-10-05T14:51:35.827Z,28.25
2022-10-05T14:52:38.986Z,28.31
2022-10-05T14:53:43.467Z,28.60
2022-10-05T14:55:21.226Z,28.76
2022-10-05T14:56:43.993Z,28.66
2022-10-05T14:57:58.239Z,28.59
2022-10-05T14:59:14.188Z,28.39
2022-10-05T15:12:06.036Z,26.04
2022-10-05T15:13:15.516Z,25.88
2022-10-05T15:14:24.524Z,25.86
2022-10-05T15:15:32.686Z,26.01
2022-10-05T15:16:38.206Z,26.03
2022-10-05T15:17:47.456Z,25.97
2022-10-05T15:24:03.936Z,25.90
2022-10-05T15:25:18.793Z,25.72
2022-10-05T15:26:48.962Z,25.49
2022-10-05T15:28:16.228Z,25.32
2022-10-05T15:29:36.231Z,25.07
2022-10-05T15:30:42.686Z,24.82
2022-10-05T15:32:03.125Z,24.54
2022-10-05T15:33:09.113Z,24.35
2022-10-05T15:34:20.901Z,24.28
2022-10-05T15:35:45.420Z,24.19
2022-10-05T15:36:58.674Z,23.94
2022-10-05T15:38:12.233Z,23.77
2022-10-05T15:39:37.122Z,23.65
2022-10-05T15:40:58.783Z,23.74
2022-10-05T15:49:19.948Z,23.27
2022-10-05T15:50:28.357Z,23.22
2022-10-05T15:52:03.908Z,23.14
2022-10-05T15:53:21.136Z,23.23
2022-10-05T15:55:00.091Z,23.07
2022-10-05T15:56:13.075Z,23.22
2022-10-05T15:57:34.763Z,23.23
2022-10-05T15:58:39.057Z,23.08
2022-10-05T15:59:49.669Z,23.05
2022-10-05T16:01:20.090Z,23.03
2022-10-05T16:02:28.800Z,23.04
2022-10-05T16:03:51.110Z,22.82
2022-10-05T16:05:41.456Z,22.63
2022-10-05T16:07:08.872Z,22.67
2022-10-05T16:09:00.495Z,22.43
2022-10-05T16:10:21.407Z,22.51
2022-10-05T16:11:44.464Z,22.34
2022-10-05T16:13:07.492Z,22.60
2022-10-05T16:14:21.593Z,22.69
2022-10-05T16:15:37.675Z,22.64
2022-10-05T16:17:01.051Z,22.70
2022-10-05T16:18:30.185Z,22.87
2022-10-05T16:19:46.150Z,22.91
2022-10-05T16:20:59.449Z,22.85
2022-10-05T16:22:20.464Z,22.78
2022-10-05T16:23:34.445Z,22.93
2022-10-05T16:25:03.340Z,22.76
2022-10-05T16:26:34.857Z,22.81
2022-10-05T16:28:05.296Z,22.83
2022-10-05T16:29:24.656Z,22.43
2022-10-05T16:30:26.762Z,22.16
2022-10-05T16:31:37.460Z,22.04
2022-10-05T16:33:03.423Z,21.70
2022-10-05T16:34:30.913Z,21.50
2022-10-05T16:35:47.017Z,21.31
2022-10-05T16:37:03.888Z,21.15
